Time;durP1;ratioP1;P1;durP2;ratioP2;P2;SDS_P1;SDS_P2;PMS_P1;PMS_P2;Temp;Humidity;BMP_temperature;BMP_pressure;BME280_temperature;BME280_humidity;BME280_pressure;Samples;Min_cycle;Max_cycle;Signal;HPM_P1;HPM_P2
2022/07/18 00:09:07;460173.00;1.53;793.28;0.00;0.00;0.62;;;;;23.40;1.00;;;;;;2271207;61;1949;-89
2022/07/18 00:11:34;174680.00;0.58;302.33;0.00;0.00;0.62;;;;;23.70;1.00;;;;;;2269853;55;3790;-87
2022/07/18 00:43:59;1390617.00;4.64;2438.93;0.00;0.00;0.62;;;;;23.30;1.00;;;;;;2285717;56;3607;-86
2022/07/18 00:48:56;676275.00;2.25;1166.12;0.00;0.00;0.62;;;;;22.60;1.00;;;;;;2368823;55;3647;-89
2022/07/18 01:24:03;1282105.00;4.27;2239.39;72467.00;0.24;126.02;;;;;21.90;1.00;;;;;;2267162;61;1297;-90
2022/07/18 01:49:06;1034512.00;3.45;1793.69;70089.00;0.23;121.91;;;;;22.20;1.00;;;;;;2262477;61;1966;-88
2022/07/18 01:54:01;1186838.00;3.96;2066.44;179962.00;0.60;311.42;;;;;22.50;1.00;;;;;;2262270;61;1346;-89
2022/07/18 01:58:57;1056363.00;3.52;1832.56;67427.00;0.22;117.31;;;;;22.50;1.00;;;;;;2270427;61;1401;-89
2022/07/18 02:01:24;329666.00;1.10;568.91;70191.00;0.23;122.09;;;;;22.70;1.00;;;;;;2267517;61;1517;-89
2022/07/18 02:03:51;494975.00;1.65;853.17;123532.00;0.41;214.17;;;;;22.70;1.00;;;;;;2264890;61;1597;-87
2022/07/18 02:06:23;504302.00;1.68;869.23;67960.00;0.23;118.24;;;;;22.40;1.00;;;;;;2276039;40;3607;-85
2022/07/18 02:08:50;128311.00;0.43;222.42;0.00;0.00;0.62;;;;;22.40;1.00;;;;;;2268766;61;1924;-87
2022/07/18 02:28:38;1192676.00;3.98;2076.98;67345.00;0.22;117.17;;;;;22.30;1.00;;;;;;2269364;55;3547;-85
2022/07/18 02:38:30;772756.00;2.58;1333.65;68887.00;0.23;119.84;;;;;22.90;1.00;;;;;;2270502;61;1308;-89
2022/07/18 03:50:31;744124.00;2.48;1283.84;0.00;0.00;0.62;;;;;20.80;1.00;;;;;;2267120;61;1182;-88
2022/07/18 03:52:58;448563.00;1.50;773.31;0.00;0.00;0.62;;;;;20.60;1.00;;;;;;2264331;61;1557;-88
2022/07/18 04:32:49;1625593.00;5.42;2881.75;36866.00;0.12;64.47;;;;;21.60;1.00;;;;;;2266438;61;1270;-90
2022/07/18 04:35:17;302430.00;1.01;522.10;21426.00;0.07;37.74;;;;;21.40;1.00;;;;;;2265011;61;1633;-90
2022/07/18 04:37:44;327791.00;1.09;565.69;0.00;0.00;0.62;;;;;21.80;1.00;;;;;;2265052;61;858;-91
2022/07/18 04:42:45;828260.00;2.76;1430.45;117084.00;0.39;203.05;;;;;22.20;1.00;;;;;;2267354;61;1338;-89
2022/07/18 04:55:21;1097015.00;3.66;1905.09;16974.00;0.06;30.03;;;;;22.50;1.00;;;;;;2392842;40;3483;31
2022/07/18 06:35:15;1154530.00;3.85;2008.22;55831.00;0.19;97.27;;;;;36.10;1.00;;;;;;2266501;61;1695;-87
2022/07/18 07:35:23;1025294.00;3.42;1777.32;0.00;0.00;0.62;;;;;39.00;1.00;;;;;;2265510;61;1426;-85
2022/07/18 07:37:52;151032.00;0.50;261.59;0.00;0.00;0.62;;;;;38.60;1.00;;;;;;2264204;61;1703;-84
2022/07/18 07:47:55;1864857.00;6.22;3350.42;313058.00;1.04;540.37;;;;;39.70;1.00;;;;;;2405192;40;3517;-90
2022/07/18 08:05:25;875938.00;2.92;1513.90;0.00;0.00;0.62;;;;;40.40;1.00;;;;;;2266731;61;1315;-89
2022/07/18 08:10:21;1393147.00;4.64;2443.62;0.00;0.00;0.62;;;;;39.50;1.00;;;;;;2266600;61;1300;-88
2022/07/18 08:38:06;1241096.00;4.14;2164.70;0.00;0.00;0.62;;;;;39.50;1.00;;;;;;2266685;61;1316;-92
2022/07/18 08:58:06;787967.00;2.63;1360.15;0.00;0.00;0.62;;;;;39.20;1.00;;;;;;2266750;61;1330;-91
2022/07/18 09:18:08;615905.00;2.05;1061.69;0.00;0.00;0.62;;;;;37.50;1.00;;;;;;2352269;40;3487;-88
2022/07/18 09:28:11;1210400.00;4.03;2109.03;28135.00;0.09;49.35;;;;;37.10;1.00;;;;;;2266434;61;1949;-88
2022/07/18 09:30:38;120505784.00;401.69;70889680.00;0.00;0.00;0.62;;;;;36.40;1.00;;;;;;2265120;61;1639;-85
2022/07/18 09:33:11;365646.00;1.22;630.75;0.00;0.00;0.62;;;;;36.30;1.00;;;;;;2317557;40;3832;-84
2022/07/18 09:43:07;1441167.00;4.80;2532.90;16495.00;0.05;29.20;;;;;35.00;1.00;;;;;;2399168;40;3688;-86
2022/07/18 09:55:33;1533526.00;5.11;2706.36;47195.00;0.16;82.33;;;;;34.50;1.00;;;;;;2392777;40;3434;-84
2022/07/18 10:03:07;415097.00;1.38;715.76;0.00;0.00;0.62;;;;;34.30;1.00;;;;;;2332361;55;2930;-84
2022/07/18 10:10:38;1533216.00;5.11;2705.78;44502.00;0.15;77.68;;;;;33.90;1.00;;;;;;2382070;40;3528;-85
2022/07/18 10:18:12;776540.00;2.59;1340.24;66729.00;0.22;116.11;;;;;34.20;1.00;;;;;;2266127;61;1407;-85
2022/07/18 10:20:43;92712.00;0.31;160.99;0.00;0.00;0.62;;;;;33.80;1.00;;;;;;2299626;40;3791;-85
2022/07/18 10:30:45;1295066.00;4.32;2263.08;207536.00;0.69;358.89;;;;;33.30;1.00;;;;;;2265819;61;1374;-86
2022/07/18 10:33:38;350370.00;1.17;604.50;0.00;0.00;0.62;;;;;34.00;1.00;;;;;;2260433;61;1226;-86
2022/07/18 10:41:14;779041.00;2.60;1344.60;0.00;0.00;0.62;;;;;34.00;1.00;;;;;;2282816;40;3496;-88
2022/07/18 10:46:15;972656.00;3.24;1684.10;0.00;0.00;0.62;;;;;34.40;1.00;;;;;;2262552;61;1397;-88
2022/07/18 10:48:59;236837.00;0.79;409.31;0.00;0.00;0.62;;;;;34.70;1.00;;;;;;2307730;40;3608;-83
2022/07/18 10:51:32;1193629.00;3.98;2078.71;52084.00;0.17;90.79;;;;;34.80;1.00;;;;;;2314227;56;3723;-87
2022/07/18 10:54:06;42313.00;0.14;73.89;0.00;0.00;0.62;;;;;34.40;1.00;;;;;;2268615;61;973;-86
2022/07/18 10:59:17;122323.00;0.41;212.09;0.00;0.00;0.62;;;;;34.50;1.00;;;;;;2460215;40;2840;-85
2022/07/18 11:01:53;255905.00;0.85;442.11;0.00;0.00;0.62;;;;;34.40;1.00;;;;;;2268425;61;1470;-85
2022/07/18 11:24:29;118857.00;0.40;206.11;0.00;0.00;0.62;;;;;34.30;1.00;;;;;;1774043;40;3219;-84
2022/07/18 11:32:04;1454035.00;4.85;2556.92;18016.00;0.06;31.83;;;;;33.70;1.00;;;;;;2269566;61;1410;-85
2022/07/18 11:34:31;229985.00;0.77;397.52;0.00;0.00;0.62;;;;;33.70;1.00;;;;;;2356801;40;3771;-84
2022/07/18 11:39:41;1475984.00;4.92;2598.01;0.00;0.00;0.62;;;;;33.80;1.00;;;;;;2265838;61;1357;-87
2022/07/18 11:44:39;1292488.00;4.31;2258.36;0.00;0.00;0.62;;;;;34.50;1.00;;;;;;1972387;56;3588;-85
2022/07/18 11:49:38;1548989.00;5.16;2735.64;0.00;0.00;0.62;;;;;33.70;1.00;;;;;;1519494;41;3495;-86
2022/07/18 11:57:10;1263104.00;4.21;2204.74;36327.00;0.12;63.53;;;;;34.00;1.00;;;;;;2262586;61;1334;-85
2022/07/18 12:02:07;1663780.00;5.55;2955.26;0.00;0.00;0.62;;;;;34.00;1.00;;;;;;2453731;40;3584;-86
2022/07/18 12:04:34;240354.00;0.80;415.36;48073.00;0.16;83.85;;;;;34.20;1.00;;;;;;2267840;61;1884;-85
2022/07/18 12:09:29;1790006.00;5.97;3201.68;70747.00;0.24;123.05;;;;;33.20;1.00;;;;;;1527691;55;3579;-89
2022/07/18 12:11:57;121567.00;0.41;210.79;0.00;0.00;0.62;;;;;33.20;1.00;;;;;;2268187;61;1418;-88
2022/07/18 12:16:59;1787576.00;5.96;3196.88;93129.00;0.31;161.71;;;;;33.80;1.00;;;;;;2165195;56;3556;-86
2022/07/18 12:24:32;772928.00;2.58;1333.95;31403.00;0.10;55.01;;;;;34.60;1.00;;;;;;2262056;61;1395;-86
2022/07/18 12:27:16;574465.00;1.91;990.15;48191.00;0.16;84.06;;;;;34.90;1.00;;;;;;2260195;61;1458;-87
2022/07/18 12:32:23;1218634.00;4.06;2123.95;26301.00;0.09;46.18;;;;;34.50;1.00;;;;;;2291416;55;3716;-85
2022/07/18 12:40:03;1472106.00;4.91;2590.74;23277.00;0.08;40.94;;;;;34.30;1.00;;;;;;2266055;61;1421;-86
2022/07/18 12:42:45;504254.00;1.68;869.15;4077.00;0.01;7.69;;;;;33.80;1.00;;;;;;2263884;61;1298;-86
2022/07/18 12:50:11;2221242.00;7.40;4088.95;113609.00;0.38;197.06;;;;;33.50;1.00;;;;;;2269022;61;1974;-87
2022/07/18 13:13:04;1428412.00;4.76;2509.12;36170.00;0.12;63.26;;;;;34.40;1.00;;;;;;2353814;40;3727;-87
2022/07/18 13:15:33;727648.00;2.43;1255.22;62292.00;0.21;108.44;;;;;34.30;1.00;;;;;;2330897;40;3532;-85
2022/07/18 13:18:01;143086.00;0.48;247.89;0.00;0.00;0.62;;;;;34.40;1.00;;;;;;2268728;61;1294;-85
2022/07/18 13:23:04;1647194.00;5.49;2923.28;1754.00;0.01;3.66;;;;;34.00;1.00;;;;;;2363119;40;3546;-85
2022/07/18 13:25:32;293752.00;0.98;507.18;0.00;0.00;0.62;;;;;34.30;1.00;;;;;;2321066;40;3544;-86
2022/07/18 13:30:36;681024.00;2.27;1174.35;0.00;0.00;0.62;;;;;34.60;1.00;;;;;;1987419;60;2014;-86
2022/07/18 13:33:05;419754.00;1.40;723.77;30759.00;0.10;53.90;;;;;34.70;1.00;;;;;;2289221;40;3587;-85
2022/07/18 13:38:05;1135652.00;3.79;1974.30;0.00;0.00;0.62;;;;;34.40;1.00;;;;;;2323634;40;3663;-84
2022/07/18 13:40:33;1150913.00;3.84;2001.72;62610.00;0.21;108.99;;;;;34.40;1.00;;;;;;2268382;61;1706;-88
2022/07/18 13:43:02;85102.00;0.28;147.85;0.00;0.00;0.62;;;;;34.40;1.00;;;;;;2275259;40;3666;-86
2022/07/18 13:45:29;177117.00;0.59;306.52;0.00;0.00;0.62;;;;;34.70;1.00;;;;;;2273381;40;3617;-85
2022/07/18 13:50:30;1455771.00;4.85;2560.17;0.00;0.00;0.62;;;;;34.20;1.00;;;;;;2298773;40;3676;-84
2022/07/18 13:53:00;154840.00;0.52;268.15;0.00;0.00;0.62;;;;;34.30;1.00;;;;;;2268619;61;1665;-86
2022/07/18 13:57:58;1381762.00;4.61;2422.54;0.00;0.00;0.62;;;;;34.50;1.00;;;;;;2266226;61;1425;-85
2022/07/18 14:05:25;852493.00;2.84;1472.83;0.00;0.00;0.62;;;;;34.80;1.00;;;;;;2392104;40;3582;-87
2022/07/18 14:07:53;32203.00;0.11;56.40;0.00;0.00;0.62;;;;;34.70;1.00;;;;;;2268738;61;1780;-86
2022/07/18 14:10:20;0.00;0.00;0.62;0.00;0.00;0.62;;;;;35.20;1.00;;;;;;2268763;61;1924;-85
2022/07/18 14:12:48;409201.00;1.36;705.62;20874.00;0.07;36.78;;;;;35.30;1.00;;;;;;2268599;61;1555;-85
2022/07/18 14:15:15;191401.00;0.64;331.12;0.00;0.00;0.62;;;;;35.60;1.00;;;;;;2280775;55;3753;-85
2022/07/18 14:20:15;1296657.00;4.32;2265.99;49006.00;0.16;85.47;;;;;35.00;1.00;;;;;;2344564;55;3608;-85
2022/07/18 14:22:42;206754.00;0.69;357.55;7324.00;0.02;13.31;;;;;34.90;1.00;;;;;;2268620;61;1466;-86
2022/07/18 14:27:41;786439.00;2.62;1357.48;0.00;0.00;0.62;;;;;35.20;1.00;;;;;;2284078;40;3509;-85
2022/07/18 14:30:11;628937.00;2.10;1084.21;39503.00;0.13;69.03;;;;;34.90;1.00;;;;;;2275488;40;3567;-87
2022/07/18 14:32:38;151181.00;0.50;261.84;0.00;0.00;0.62;;;;;34.70;1.00;;;;;;2267685;61;2109;-88
2022/07/18 14:35:07;221225.00;0.74;382.45;0.00;0.00;0.62;;;;;34.70;1.00;;;;;;2268273;61;1018;-86
2022/07/18 14:37:35;359703.00;1.20;620.54;888.00;0.00;2.16;;;;;34.50;1.00;;;;;;2277181;55;3734;-86
2022/07/18 14:40:08;356256.00;1.19;614.61;0.00;0.00;0.62;;;;;34.80;1.00;;;;;;2323635;40;3610;-86
2022/07/18 14:42:35;201020.00;0.67;347.68;0.00;0.00;0.62;;;;;35.20;1.00;;;;;;2268229;61;1337;-86
2022/07/18 14:45:05;521702.00;1.74;899.20;135290.00;0.45;234.45;;;;;35.00;1.00;;;;;;2268592;61;1049;-86
2022/07/18 14:47:33;323022.00;1.08;557.49;87999.00;0.29;152.85;;;;;34.60;1.00;;;;;;2268097;61;1677;-83
2022/07/18 14:52:34;73228.00;0.24;127.34;0.00;0.00;0.62;;;;;34.80;1.00;;;;;;2274797;56;4151;-84
2022/07/18 14:55:01;108424.00;0.36;188.11;0.00;0.00;0.62;;;;;35.20;1.00;;;;;;2274055;55;3770;-85
2022/07/18 14:57:28;57203.00;0.19;99.64;0.00;0.00;0.62;;;;;35.10;1.00;;;;;;2264268;61;1145;-85
2022/07/18 14:59:55;139792.00;0.47;242.21;0.00;0.00;0.62;;;;;34.80;1.00;;;;;;2264179;61;1582;-85
2022/07/18 15:02:23;141205.00;0.47;244.65;22025.00;0.07;38.78;;;;;34.30;1.00;;;;;;2263989;61;1399;-87
2022/07/18 15:04:50;0.00;0.00;0.62;0.00;0.00;0.62;;;;;34.00;1.00;;;;;;2267730;40;3597;-85
2022/07/18 15:07:18;83430.00;0.28;144.96;0.00;0.00;0.62;;;;;34.00;1.00;;;;;;2398981;40;3574;-86
2022/07/18 15:09:45;220500.00;0.74;381.20;60563.00;0.20;105.45;;;;;34.40;1.00;;;;;;2268080;61;2002;-85
2022/07/18 15:14:42;606474.00;2.02;1045.40;0.00;0.00;0.62;;;;;34.70;1.00;;;;;;2261612;61;1311;-84
2022/07/18 15:17:09;194156.00;0.65;335.86;0.00;0.00;0.62;;;;;34.80;1.00;;;;;;2260073;61;1646;-85
2022/07/18 15:19:38;164759.00;0.55;285.24;0.00;0.00;0.62;;;;;34.60;1.00;;;;;;2260286;61;1091;-85
2022/07/18 15:22:05;213527.00;0.71;369.21;0.00;0.00;0.62;;;;;34.70;1.00;;;;;;2260320;61;1563;-85
2022/07/18 15:24:33;234995.00;0.78;406.14;0.00;0.00;0.62;;;;;35.00;1.00;;;;;;2273641;56;3787;-84
2022/07/18 15:27:00;194587.00;0.65;336.61;59236.00;0.20;103.16;;;;;34.80;1.00;;;;;;2268088;61;1451;-85
2022/07/18 15:29:27;517918.00;1.73;892.68;0.00;0.00;0.62;;;;;34.90;1.00;;;;;;2335367;40;3917;-86
2022/07/18 15:31:55;167483.00;0.56;289.93;0.00;0.00;0.62;;;;;34.80;1.00;;;;;;2300084;40;3688;-85
2022/07/18 15:34:22;1077970.00;3.59;1871.07;0.00;0.00;0.62;;;;;34.70;1.00;;;;;;2274836;56;3773;-85
2022/07/18 15:36:51;362317.00;1.21;625.03;0.00;0.00;0.62;;;;;34.30;1.00;;;;;;2267932;61;1704;-85
2022/07/18 15:39:20;279791.00;0.93;483.18;0.00;0.00;0.62;;;;;34.40;1.00;;;;;;2268101;61;1557;-85
2022/07/18 15:54:18;1026080.00;3.42;1778.72;50614.00;0.17;88.25;;;;;34.40;1.00;;;;;;2265447;61;1413;-86
2022/07/18 15:59:13;1306212.00;4.35;2283.48;56584.00;0.19;98.57;;;;;34.00;1.00;;;;;;2269491;40;3549;-87
2022/07/18 16:01:41;169605.00;0.57;293.59;58975.00;0.20;102.70;;;;;34.10;1.00;;;;;;2268042;61;1662;-87
2022/07/18 16:04:08;161672.00;0.54;279.92;61512.00;0.21;107.09;;;;;34.40;1.00;;;;;;2268270;61;1110;-85
2022/07/18 16:06:38;162275.00;0.54;280.96;56602.00;0.19;98.60;;;;;34.80;1.00;;;;;;2268284;61;1097;-85
2022/07/18 16:09:05;376245.00;1.25;648.97;54615.00;0.18;95.17;;;;;34.80;1.00;;;;;;2268175;61;1099;-86
2022/07/18 16:11:37;378648.00;1.26;653.10;71008.00;0.24;123.50;;;;;34.40;1.00;;;;;;2268139;61;2007;-87
2022/07/18 16:14:07;613897.00;2.05;1058.22;107716.00;0.36;186.89;;;;;34.40;1.00;;;;;;2274772;56;3880;-85
2022/07/18 16:21:40;1479451.00;4.93;2604.51;77136.00;0.26;134.09;;;;;34.40;1.00;;;;;;2287211;40;3640;-86
2022/07/18 16:26:38;2005423.00;6.68;3635.47;113534.00;0.38;196.93;;;;;34.30;1.00;;;;;;2288792;40;3521;-85
2022/07/18 16:29:05;628388.00;2.09;1083.26;58093.00;0.19;101.18;;;;;34.40;1.00;;;;;;2268165;61;1139;-87
2022/07/18 16:34:03;1835997.00;6.12;3292.83;80509.00;0.27;139.92;;;;;34.20;1.00;;;;;;2266263;61;1345;-86
2022/07/18 16:38:58;1337844.00;4.46;2341.53;56660.00;0.19;98.70;;;;;34.00;1.00;;;;;;2266482;61;1318;-88
2022/07/18 16:41:26;477806.00;1.59;823.62;54209.00;0.18;94.46;;;;;33.80;1.00;;;;;;2264287;61;1720;-86
2022/07/18 16:46:25;896433.00;2.99;1549.86;55430.00;0.18;96.58;;;;;33.50;1.00;;;;;;2266629;61;1341;-88
2022/07/18 16:51:22;2718727.00;9.06;5219.70;48272.00;0.16;84.20;;;;;34.00;1.00;;;;;;2276603;56;3602;-85
2022/07/18 16:53:50;836595.00;2.79;1445.02;59857.00;0.20;104.23;;;;;33.90;1.00;;;;;;2267771;61;1476;-85
2022/07/18 16:56:17;563025.00;1.88;970.42;53165.00;0.18;92.66;;;;;34.00;1.00;;;;;;2267807;61;1164;-86
2022/07/18 17:01:13;452850.00;1.51;780.68;0.00;0.00;0.62;;;;;33.50;1.00;;;;;;2265445;61;1415;-86
2022/07/18 17:03:42;308518.00;1.03;532.56;0.00;0.00;0.62;;;;;33.60;1.00;;;;;;2263893;61;1101;-87
2022/07/18 17:06:10;229789.00;0.77;397.19;108491.00;0.36;188.23;;;;;33.50;1.00;;;;;;2279084;55;3747;-83
2022/07/18 17:08:37;348721.00;1.16;601.66;0.00;0.00;0.62;;;;;33.70;1.00;;;;;;2267921;61;1869;-86
2022/07/18 17:11:05;144721.00;0.48;250.71;0.00;0.00;0.62;;;;;33.50;1.00;;;;;;2267927;61;1938;-87
2022/07/18 17:13:33;185194.00;0.62;320.43;0.00;0.00;0.62;;;;;33.60;1.00;;;;;;2268260;61;965;-86
2022/07/18 17:16:00;420337.00;1.40;724.77;0.00;0.00;0.62;;;;;33.70;1.00;;;;;;2268125;61;1527;-85
2022/07/18 17:23:31;1266623.00;4.22;2211.15;0.00;0.00;0.62;;;;;33.60;1.00;;;;;;1787877;41;3401;-86
2022/07/18 17:25:59;418251.00;1.39;721.18;0.00;0.00;0.62;;;;;33.50;1.00;;;;;;2290464;40;3722;-84
2022/07/18 17:28:27;671728.00;2.24;1158.25;12702.00;0.04;22.63;;;;;33.40;1.00;;;;;;2274376;56;3801;-87
2022/07/18 17:30:55;312590.00;1.04;539.56;40553.00;0.14;70.85;;;;;33.40;1.00;;;;;;2267560;61;1997;-85
2022/07/18 17:33:23;286639.00;0.96;494.95;84734.00;0.28;147.21;;;;;33.40;1.00;;;;;;2267656;61;1472;-86
2022/07/18 17:35:53;493423.00;1.64;850.50;0.00;0.00;0.62;;;;;33.10;1.00;;;;;;2267909;61;1835;-85
2022/07/18 17:38:21;98571.00;0.33;171.11;0.00;0.00;0.62;;;;;33.00;1.00;;;;;;2267975;61;1510;-85
2022/07/18 17:45:49;1530903.00;5.10;2701.41;49299.00;0.16;85.97;;;;;33.10;1.00;;;;;;2265185;61;1342;-86
2022/07/18 17:48:16;289209.00;0.96;499.37;0.00;0.00;0.62;;;;;33.10;1.00;;;;;;2281390;40;3581;-85
2022/07/18 17:50:47;150257.00;0.50;260.25;0.00;0.00;0.62;;;;;33.10;1.00;;;;;;2301306;55;3762;-84
2022/07/18 17:53:14;904939.00;3.02;1564.80;110955.00;0.37;192.48;;;;;33.20;1.00;;;;;;2272651;41;3577;-85
2022/07/18 17:55:42;957222.00;3.19;1656.85;0.00;0.00;0.62;;;;;33.30;1.00;;;;;;2284620;40;3651;-87
2022/07/18 17:58:09;352850.00;1.18;608.76;0.00;0.00;0.62;;;;;33.20;1.00;;;;;;2268685;61;1187;-85
2022/07/18 18:00:36;755934.00;2.52;1304.38;94013.00;0.31;163.24;;;;;32.80;1.00;;;;;;2280201;40;3591;-86
2022/07/18 18:08:25;2377272.00;7.92;4429.96;179571.00;0.60;310.75;;;;;32.40;1.00;;;;;;2296330;56;3653;-88
2022/07/18 18:10:52;1664322.00;5.55;2956.31;142710.00;0.48;247.24;;;;;32.50;1.00;;;;;;2268815;61;1923;-87
2022/07/18 18:18:32;1099097.00;3.66;1908.81;107539.00;0.36;186.58;;;;;32.60;1.00;;;;;;1977413;60;1722;-86
2022/07/18 18:33:40;655640.00;2.19;1130.40;60498.00;0.20;105.34;;;;;32.10;1.00;;;;;;2206783;60;1945;-87
2022/07/18 18:36:09;363509.00;1.21;627.08;66907.00;0.22;116.42;;;;;32.10;1.00;;;;;;2279447;40;3817;-86
2022/07/18 18:38:36;127661.00;0.43;221.30;0.00;0.00;0.62;;;;;32.20;1.00;;;;;;2268539;61;1628;-86
2022/07/18 18:41:03;255158.00;0.85;440.82;47498.00;0.16;82.86;;;;;32.30;1.00;;;;;;2268600;61;1367;-88
2022/07/18 18:43:31;147760.00;0.49;255.95;0.00;0.00;0.62;;;;;32.20;1.00;;;;;;2268542;61;1136;-88
2022/07/18 18:45:58;199319.00;0.66;344.75;6807.00;0.02;12.42;;;;;32.10;1.00;;;;;;2268686;61;1075;-88
2022/07/18 18:48:25;554414.00;1.85;955.57;0.00;0.00;0.62;;;;;32.00;1.00;;;;;;2283335;56;3816;-87
2022/07/18 18:50:54;54774.00;0.18;95.44;0.00;0.00;0.62;;;;;31.90;1.00;;;;;;2268597;61;1912;-85
2022/07/18 18:53:22;132427.00;0.44;229.51;0.00;0.00;0.62;;;;;31.60;1.00;;;;;;2268640;61;1071;-88
2022/07/18 18:55:50;687990.00;2.29;1186.42;160612.00;0.54;278.09;;;;;31.70;1.00;;;;;;2268596;61;1675;-86
2022/07/18 18:58:17;290718.00;0.97;501.96;0.00;0.00;0.62;;;;;31.80;1.00;;;;;;2268496;61;901;-85
2022/07/18 19:00:45;115073.00;0.38;199.58;0.00;0.00;0.62;;;;;32.10;1.00;;;;;;2268528;61;1050;-86
2022/07/18 19:03:12;115027.00;0.38;199.50;38312.00;0.13;66.97;;;;;32.30;1.00;;;;;;2268517;61;1129;-86
2022/07/18 19:05:39;71211.00;0.24;123.85;0.00;0.00;0.62;;;;;32.40;1.00;;;;;;2268494;61;1028;-86
2022/07/18 19:08:07;152646.00;0.51;264.37;0.00;0.00;0.62;;;;;32.40;1.00;;;;;;2268439;61;1352;-87
2022/07/18 19:10:35;100199.00;0.33;173.92;0.00;0.00;0.62;;;;;32.30;1.00;;;;;;2268547;61;1915;-87
2022/07/18 19:13:02;95570.00;0.32;165.92;0.00;0.00;0.62;;;;;31.90;1.00;;;;;;2268487;61;1419;-85
2022/07/18 19:15:28;154243.00;0.51;267.12;0.00;0.00;0.62;;;;;31.80;1.00;;;;;;2268498;61;1566;-85
2022/07/18 19:17:56;63090.00;0.21;109.82;0.00;0.00;0.62;;;;;31.60;1.00;;;;;;2268504;61;1099;-85
2022/07/18 19:20:22;126379.00;0.42;219.08;0.00;0.00;0.62;;;;;31.50;1.00;;;;;;2268466;61;1354;-89
2022/07/18 19:22:49;109853.00;0.37;190.58;0.00;0.00;0.62;;;;;31.20;1.00;;;;;;2268420;61;1401;-87
2022/07/18 19:25:19;35768.00;0.12;62.57;0.00;0.00;0.62;;;;;31.00;1.00;;;;;;2268443;61;1078;-87
2022/07/18 19:27:46;34355.00;0.11;60.12;0.00;0.00;0.62;;;;;31.20;1.00;;;;;;2268484;61;1449;-88
2022/07/18 19:30:13;295244.00;0.98;509.74;0.00;0.00;0.62;;;;;31.20;1.00;;;;;;2268426;61;1122;-89
2022/07/18 19:32:40;60648.00;0.20;105.60;0.00;0.00;0.62;;;;;31.30;1.00;;;;;;2268474;61;1943;-87
2022/07/18 19:35:10;0.00;0.00;0.62;0.00;0.00;0.62;;;;;31.30;1.00;;;;;;2268523;61;1074;-87
2022/07/18 19:37:37;343840.00;1.15;593.27;0.00;0.00;0.62;;;;;31.30;1.00;;;;;;2275500;56;3829;-87
2022/07/18 19:40:05;45466.00;0.15;79.34;0.00;0.00;0.62;;;;;31.20;1.00;;;;;;2268320;61;1520;-87
2022/07/18 19:42:33;137019.00;0.46;237.43;0.00;0.00;0.62;;;;;31.00;1.00;;;;;;2268220;61;1440;-87
2022/07/18 19:45:00;407429.00;1.36;702.58;75767.00;0.25;131.72;;;;;30.70;1.00;;;;;;2268338;61;1627;-86
2022/07/18 19:47:27;48356.00;0.16;84.34;0.00;0.00;0.62;;;;;30.60;1.00;;;;;;2268367;61;2007;-85
2022/07/18 19:49:54;257296.00;0.86;444.50;47848.00;0.16;83.46;;;;;30.60;1.00;;;;;;2268317;61;1115;-86
2022/07/18 19:52:21;90161.00;0.30;156.59;0.00;0.00;0.62;;;;;30.40;1.00;;;;;;2268185;61;1997;-86
2022/07/18 19:54:48;212468.00;0.71;367.38;46442.00;0.15;81.03;;;;;30.30;1.00;;;;;;2268430;61;1059;-86
2022/07/18 19:57:15;14517.00;0.05;25.77;0.00;0.00;0.62;;;;;30.10;1.00;;;;;;2268321;61;1070;-86
2022/07/18 19:59:44;206062.00;0.69;356.36;0.00;0.00;0.62;;;;;30.00;1.00;;;;;;2268364;61;1745;-86
2022/07/18 20:02:11;64868.00;0.22;112.89;0.00;0.00;0.62;;;;;29.90;1.00;;;;;;2268320;61;1397;-87
2022/07/18 20:04:38;0.00;0.00;0.62;0.00;0.00;0.62;;;;;29.80;1.00;;;;;;2268418;61;964;-87
2022/07/18 20:09:40;400110.00;1.33;689.99;0.00;0.00;0.62;;;;;29.70;1.00;;;;;;2271075;56;2178;-84
2022/07/18 20:12:07;64375.00;0.21;112.04;0.00;0.00;0.62;;;;;29.50;1.00;;;;;;2281913;40;3649;-86
2022/07/18 20:14:34;155503.00;0.52;269.29;0.00;0.00;0.62;;;;;29.40;1.00;;;;;;2268124;61;1842;-86
2022/07/18 20:17:02;116085.00;0.39;201.33;0.00;0.00;0.62;;;;;29.40;1.00;;;;;;2268306;61;1600;-85
2022/07/18 20:19:29;43397.00;0.14;75.77;0.00;0.00;0.62;;;;;29.20;1.00;;;;;;2268321;61;1706;-87
2022/07/18 20:21:56;262527.00;0.88;453.49;130943.00;0.44;226.96;;;;;29.20;1.00;;;;;;2268261;61;1377;-87
2022/07/18 20:24:23;94117.00;0.31;163.42;0.00;0.00;0.62;;;;;29.00;1.00;;;;;;2268333;61;1124;-88
2022/07/18 20:26:50;0.00;0.00;0.62;0.00;0.00;0.62;;;;;29.20;1.00;;;;;;2268374;61;1175;-86
2022/07/18 20:29:18;40283.00;0.13;70.38;0.00;0.00;0.62;;;;;29.20;1.00;;;;;;2296161;40;3595;-86
2022/07/18 20:31:45;231685.00;0.77;400.45;0.00;0.00;0.62;;;;;29.00;1.00;;;;;;2268208;61;1996;-87
2022/07/18 20:34:13;266540.00;0.89;460.39;8073.00;0.03;14.61;;;;;29.10;1.00;;;;;;2268269;61;1067;-87
2022/07/18 20:36:40;242421.00;0.81;418.92;55997.00;0.19;97.56;;;;;29.00;1.00;;;;;;2268213;61;1542;-86
2022/07/18 20:39:07;331376.00;1.10;571.85;23614.00;0.08;41.53;;;;;28.80;1.00;;;;;;2268314;61;1127;-87
2022/07/18 20:41:34;354908.00;1.18;612.30;128180.00;0.43;222.19;;;;;28.60;1.00;;;;;;2268278;61;1415;-86
2022/07/18 20:44:02;88717.00;0.30;154.09;0.00;0.00;0.62;;;;;28.60;1.00;;;;;;2268245;61;1086;-87
2022/07/18 20:46:29;2587.00;0.01;5.10;0.00;0.00;0.62;;;;;28.40;1.00;;;;;;2267630;61;1465;-88
2022/07/18 20:54:04;1203535.00;4.01;2096.61;0.00;0.00;0.62;;;;;28.20;1.00;;;;;;2065885;40;3590;-88
2022/07/18 20:56:31;980355.00;3.27;1697.71;76502.00;0.26;132.99;;;;;28.30;1.00;;;;;;2268216;61;1511;-88
2022/07/18 20:58:59;1414484.00;4.71;2483.21;17602.00;0.06;31.12;;;;;28.10;1.00;;;;;;2268251;61;945;-88
2022/07/18 21:01:26;1764194.00;5.88;3150.85;50353.00;0.17;87.80;;;;;28.00;1.00;;;;;;2268115;61;1678;-87
2022/07/18 21:03:53;1598208.00;5.33;2829.31;161360.00;0.54;279.38;;;;;28.00;1.00;;;;;;2268171;61;1063;-88
2022/07/18 21:06:20;509502.00;1.70;878.18;62116.00;0.21;108.13;;;;;27.80;1.00;;;;;;2268204;61;1003;-87
2022/07/18 21:08:48;372841.00;1.24;643.12;65054.00;0.22;113.21;;;;;27.70;1.00;;;;;;2268156;61;1591;-88
2022/07/18 21:11:17;488850.00;1.63;842.63;0.00;0.00;0.62;;;;;27.80;1.00;;;;;;2267725;61;1997;-88
2022/07/18 21:13:44;255676.00;0.85;441.71;31038.00;0.10;54.38;;;;;27.60;1.00;;;;;;2267731;61;1036;-88
2022/07/18 21:16:11;117392464.00;391.31;65531360.00;0.00;0.00;0.62;;;;;27.50;1.00;;;;;;2267756;61;1675;-89
2022/07/18 21:18:39;430062.00;1.43;741.49;758.00;0.00;1.93;;;;;27.30;1.00;;;;;;2267720;61;1763;-88
2022/07/18 21:21:06;428973.00;1.43;739.62;9976.00;0.03;17.91;;;;;27.30;1.00;;;;;;2267623;61;1722;-88
2022/07/18 21:23:33;228374.00;0.76;394.75;38925.00;0.13;68.03;;;;;27.20;1.00;;;;;;2268072;61;1093;-87
2022/07/18 21:26:01;516374.00;1.72;890.02;114393.00;0.38;198.41;;;;;27.10;1.00;;;;;;2268567;61;1546;-88
2022/07/18 21:28:30;1223941.00;4.08;2133.57;73125.00;0.24;127.16;;;;;27.10;1.00;;;;;;2268586;61;1490;-87
2022/07/18 21:30:57;1199289.00;4.00;2088.93;66836.00;0.22;116.29;;;;;27.10;1.00;;;;;;2268651;61;1919;-88
2022/07/18 21:33:27;118400720.00;394.67;67235944.00;105967.00;0.35;183.87;;;;;27.10;1.00;;;;;;2268748;61;1416;-89
2022/07/18 21:35:57;120344648.00;401.15;70605440.00;66293.00;0.22;115.35;;;;;27.10;1.00;;;;;;2268788;61;1036;-88
2022/07/18 21:38:24;966191.00;3.22;1672.68;187958.00;0.63;325.19;;;;;27.20;1.00;;;;;;2268729;61;1388;-86
2022/07/18 21:40:51;381522.00;1.27;658.04;13640.00;0.05;24.25;;;;;27.10;1.00;;;;;;2268325;61;1563;-88
2022/07/18 21:43:18;455135.00;1.52;784.62;62942.00;0.21;109.56;;;;;27.00;1.00;;;;;;2268724;61;1027;-88
2022/07/18 21:45:48;325747.00;1.09;562.18;0.00;0.00;0.62;;;;;26.90;1.00;;;;;;2268727;61;1050;-89
2022/07/18 21:48:15;329860.00;1.10;569.25;0.00;0.00;0.62;;;;;26.80;1.00;;;;;;2268619;61;1594;-88
2022/07/18 21:50:45;243856.00;0.81;421.38;19986.00;0.07;35.25;;;;;26.80;1.00;;;;;;2268709;61;1437;-87
2022/07/18 21:53:13;280771.00;0.94;484.86;19890.00;0.07;35.08;;;;;26.70;1.00;;;;;;2268710;61;1952;-89
2022/07/18 21:55:40;995177.00;3.32;1723.93;8145.00;0.03;14.74;;;;;26.60;1.00;;;;;;2268489;61;1486;-87